sensor_id;sensor_type;location;lat;lon;timestamp;P1;durP1;ratioP1;P2;durP2;ratioP2
64186;SDS011;50491;39.484;-8.540;2023-07-13T00:01:10;2.75;;;1.30;;
64186;SDS011;50491;39.484;-8.540;2023-07-13T00:03:29;2.92;;;1.33;;
64186;SDS011;50491;39.484;-8.540;2023-07-13T00:05:57;2.85;;;1.30;;
64186;SDS011;50491;39.484;-8.540;2023-07-13T00:07:58;1.48;;;1.08;;
64186;SDS011;50491;39.484;-8.540;2023-07-13T00:10:14;4.50;;;1.40;;
64186;SDS011;50491;39.484;-8.540;2023-07-13T00:14:37;2.30;;;1.20;;
64186;SDS011;50491;39.484;-8.540;2023-07-13T00:16:39;1.48;;;1.05;;
64186;SDS011;50491;39.484;-8.540;2023-07-13T00:18:43;3.08;;;1.00;;
64186;SDS011;50491;39.484;-8.540;2023-07-13T00:21:03;1.33;;;1.23;;
64186;SDS011;50491;39.484;-8.540;2023-07-13T00:23:25;2.45;;;1.10;;
64186;SDS011;50491;39.484;-8.540;2023-07-13T00:25:26;2.35;;;1.70;;
64186;SDS011;50491;39.484;-8.540;2023-07-13T00:27:47;2.88;;;1.05;;
64186;SDS011;50491;39.484;-8.540;2023-07-13T00:30:07;3.90;;;0.98;;
64186;SDS011;50491;39.484;-8.540;2023-07-13T00:32:09;2.78;;;1.10;;
64186;SDS011;50491;39.484;-8.540;2023-07-13T00:34:10;4.18;;;1.38;;
64186;SDS011;50491;39.484;-8.540;2023-07-13T00:36:11;4.63;;;1.02;;
64186;SDS011;50491;39.484;-8.540;2023-07-13T00:38:12;6.47;;;1.48;;
64186;SDS011;50491;39.484;-8.540;2023-07-13T00:40:31;1.90;;;1.40;;
64186;SDS011;50491;39.484;-8.540;2023-07-13T00:42:51;9.07;;;1.20;;
64186;SDS011;50491;39.484;-8.540;2023-07-13T00:47:11;3.85;;;1.25;;
64186;SDS011;50491;39.484;-8.540;2023-07-13T00:49:13;1.63;;;1.20;;
64186;SDS011;50491;39.484;-8.540;2023-07-13T00:51:21;2.65;;;1.10;;
64186;SDS011;50491;39.484;-8.540;2023-07-13T00:53:42;2.53;;;1.08;;
64186;SDS011;50491;39.484;-8.540;2023-07-13T00:55:43;2.25;;;1.30;;
64186;SDS011;50491;39.484;-8.540;2023-07-13T00:57:44;1.77;;;0.93;;
64186;SDS011;50491;39.484;-8.540;2023-07-13T01:05:11;3.40;;;1.27;;
64186;SDS011;50491;39.484;-8.540;2023-07-13T01:07:14;4.20;;;1.20;;
64186;SDS011;50491;39.484;-8.540;2023-07-13T01:09:33;1.45;;;1.35;;
64186;SDS011;50491;39.484;-8.540;2023-07-13T01:11:52;4.80;;;1.27;;
64186;SDS011;50491;39.484;-8.540;2023-07-13T01:16:31;3.95;;;1.17;;
64186;SDS011;50491;39.484;-8.540;2023-07-13T01:20:55;2.95;;;1.10;;
64186;SDS011;50491;39.484;-8.540;2023-07-13T01:23:15;2.72;;;1.27;;
64186;SDS011;50491;39.484;-8.540;2023-07-13T01:25:34;1.08;;;0.90;;
64186;SDS011;50491;39.484;-8.540;2023-07-13T01:27:37;2.92;;;1.20;;
64186;SDS011;50491;39.484;-8.540;2023-07-13T01:29:42;3.28;;;1.02;;
64186;SDS011;50491;39.484;-8.540;2023-07-13T01:31:43;2.17;;;1.17;;
64186;SDS011;50491;39.484;-8.540;2023-07-13T01:33:44;6.68;;;1.23;;
64186;SDS011;50491;39.484;-8.540;2023-07-13T01:35:46;2.17;;;0.93;;
64186;SDS011;50491;39.484;-8.540;2023-07-13T01:37:46;3.17;;;1.40;;
64186;SDS011;50491;39.484;-8.540;2023-07-13T01:39:49;2.72;;;1.00;;
64186;SDS011;50491;39.484;-8.540;2023-07-13T01:41:50;4.30;;;1.13;;
64186;SDS011;50491;39.484;-8.540;2023-07-13T01:44:09;2.88;;;1.30;;
64186;SDS011;50491;39.484;-8.540;2023-07-13T01:46:09;1.58;;;0.93;;
64186;SDS011;50491;39.484;-8.540;2023-07-13T01:48:28;2.25;;;1.15;;
64186;SDS011;50491;39.484;-8.540;2023-07-13T01:50:29;1.92;;;1.05;;
64186;SDS011;50491;39.484;-8.540;2023-07-13T01:52:29;2.80;;;1.00;;
64186;SDS011;50491;39.484;-8.540;2023-07-13T01:54:32;3.88;;;1.10;;
64186;SDS011;50491;39.484;-8.540;2023-07-13T01:56:52;2.42;;;1.20;;
64186;SDS011;50491;39.484;-8.540;2023-07-13T01:58:53;1.40;;;0.95;;
64186;SDS011;50491;39.484;-8.540;2023-07-13T02:00:53;2.63;;;1.00;;
64186;SDS011;50491;39.484;-8.540;2023-07-13T02:03:13;2.17;;;0.98;;
64186;SDS011;50491;39.484;-8.540;2023-07-13T02:05:18;1.25;;;1.02;;
64186;SDS011;50491;39.484;-8.540;2023-07-13T02:07:19;1.85;;;0.88;;
64186;SDS011;50491;39.484;-8.540;2023-07-13T02:09:20;2.80;;;1.38;;
64186;SDS011;50491;39.484;-8.540;2023-07-13T02:11:20;3.22;;;0.88;;
64186;SDS011;50491;39.484;-8.540;2023-07-13T02:13:21;2.35;;;1.85;;
64186;SDS011;50491;39.484;-8.540;2023-07-13T02:28:39;2.55;;;1.00;;
64186;SDS011;50491;39.484;-8.540;2023-07-13T02:33:30;3.33;;;0.98;;
64186;SDS011;50491;39.484;-8.540;2023-07-13T02:35:45;3.83;;;1.23;;
64186;SDS011;50491;39.484;-8.540;2023-07-13T02:37:46;0.93;;;0.70;;
64186;SDS011;50491;39.484;-8.540;2023-07-13T02:48:07;0.85;;;0.85;;
64186;SDS011;50491;39.484;-8.540;2023-07-13T02:50:08;1.20;;;0.80;;
64186;SDS011;50491;39.484;-8.540;2023-07-13T02:58:06;0.93;;;0.80;;
64186;SDS011;50491;39.484;-8.540;2023-07-13T03:00:25;3.97;;;1.10;;
64186;SDS011;50491;39.484;-8.540;2023-07-13T03:02:44;1.35;;;0.95;;
64186;SDS011;50491;39.484;-8.540;2023-07-13T03:04:46;3.35;;;0.88;;
64186;SDS011;50491;39.484;-8.540;2023-07-13T03:06:47;0.95;;;0.80;;
64186;SDS011;50491;39.484;-8.540;2023-07-13T03:09:07;2.92;;;0.98;;
64186;SDS011;50491;39.484;-8.540;2023-07-13T03:11:12;0.70;;;0.70;;
64186;SDS011;50491;39.484;-8.540;2023-07-13T03:13:41;4.43;;;1.13;;
64186;SDS011;50491;39.484;-8.540;2023-07-13T03:15:42;1.52;;;1.02;;
64186;SDS011;50491;39.484;-8.540;2023-07-13T03:17:42;1.30;;;0.90;;
64186;SDS011;50491;39.484;-8.540;2023-07-13T03:19:43;1.17;;;0.90;;
64186;SDS011;50491;39.484;-8.540;2023-07-13T03:21:45;1.05;;;0.70;;
64186;SDS011;50491;39.484;-8.540;2023-07-13T03:24:11;3.10;;;1.20;;
64186;SDS011;50491;39.484;-8.540;2023-07-13T03:26:19;4.32;;;1.20;;
64186;SDS011;50491;39.484;-8.540;2023-07-13T03:28:21;3.60;;;0.90;;
64186;SDS011;50491;39.484;-8.540;2023-07-13T03:30:40;1.95;;;1.48;;
64186;SDS011;50491;39.484;-8.540;2023-07-13T03:33:05;1.88;;;0.70;;
64186;SDS011;50491;39.484;-8.540;2023-07-13T03:35:06;4.03;;;1.02;;
64186;SDS011;50491;39.484;-8.540;2023-07-13T03:37:06;5.15;;;1.30;;
64186;SDS011;50491;39.484;-8.540;2023-07-13T03:39:10;0.90;;;0.80;;
64186;SDS011;50491;39.484;-8.540;2023-07-13T03:41:18;4.95;;;1.17;;
64186;SDS011;50491;39.484;-8.540;2023-07-13T03:43:44;2.47;;;1.08;;
64186;SDS011;50491;39.484;-8.540;2023-07-13T03:45:46;2.45;;;0.82;;
64186;SDS011;50491;39.484;-8.540;2023-07-13T03:48:05;4.20;;;0.95;;
64186;SDS011;50491;39.484;-8.540;2023-07-13T03:50:07;1.42;;;0.93;;
64186;SDS011;50491;39.484;-8.540;2023-07-13T03:52:08;2.13;;;0.82;;
64186;SDS011;50491;39.484;-8.540;2023-07-13T03:54:08;2.17;;;0.77;;
64186;SDS011;50491;39.484;-8.540;2023-07-13T03:56:09;1.90;;;0.80;;
64186;SDS011;50491;39.484;-8.540;2023-07-13T04:03:25;3.30;;;1.00;;
64186;SDS011;50491;39.484;-8.540;2023-07-13T04:05:28;1.17;;;0.80;;
64186;SDS011;50491;39.484;-8.540;2023-07-13T04:07:29;2.13;;;0.93;;
64186;SDS011;50491;39.484;-8.540;2023-07-13T04:09:29;3.13;;;1.08;;
64186;SDS011;50491;39.484;-8.540;2023-07-13T04:11:30;0.75;;;0.70;;
64186;SDS011;50491;39.484;-8.540;2023-07-13T04:13:31;2.30;;;1.13;;
64186;SDS011;50491;39.484;-8.540;2023-07-13T04:15:32;1.77;;;1.20;;
64186;SDS011;50491;39.484;-8.540;2023-07-13T04:17:34;3.00;;;0.80;;
64186;SDS011;50491;39.484;-8.540;2023-07-13T04:19:34;2.05;;;0.90;;
64186;SDS011;50491;39.484;-8.540;2023-07-13T04:21:35;1.65;;;1.10;;
64186;SDS011;50491;39.484;-8.540;2023-07-13T04:25:55;2.50;;;1.17;;
64186;SDS011;50491;39.484;-8.540;2023-07-13T04:28:15;1.80;;;1.10;;
64186;SDS011;50491;39.484;-8.540;2023-07-13T04:30:17;1.42;;;1.10;;
64186;SDS011;50491;39.484;-8.540;2023-07-13T04:32:18;2.17;;;1.48;;
64186;SDS011;50491;39.484;-8.540;2023-07-13T04:34:19;2.88;;;0.88;;
64186;SDS011;50491;39.484;-8.540;2023-07-13T04:36:19;1.55;;;1.10;;
64186;SDS011;50491;39.484;-8.540;2023-07-13T04:41:16;5.00;;;1.17;;
64186;SDS011;50491;39.484;-8.540;2023-07-13T04:46:38;1.45;;;1.02;;
64186;SDS011;50491;39.484;-8.540;2023-07-13T04:48:43;1.80;;;1.00;;
64186;SDS011;50491;39.484;-8.540;2023-07-13T04:50:43;1.85;;;1.15;;
64186;SDS011;50491;39.484;-8.540;2023-07-13T04:53:02;1.40;;;1.00;;
64186;SDS011;50491;39.484;-8.540;2023-07-13T04:55:04;3.67;;;1.08;;
64186;SDS011;50491;39.484;-8.540;2023-07-13T04:57:05;1.90;;;1.08;;
64186;SDS011;50491;39.484;-8.540;2023-07-13T04:59:25;2.35;;;0.93;;
64186;SDS011;50491;39.484;-8.540;2023-07-13T05:01:26;1.98;;;0.80;;
64186;SDS011;50491;39.484;-8.540;2023-07-13T05:03:27;1.77;;;1.00;;
64186;SDS011;50491;39.484;-8.540;2023-07-13T05:05:28;4.10;;;1.05;;
64186;SDS011;50491;39.484;-8.540;2023-07-13T05:07:29;3.92;;;1.00;;
64186;SDS011;50491;39.484;-8.540;2023-07-13T05:09:48;1.83;;;1.30;;
64186;SDS011;50491;39.484;-8.540;2023-07-13T05:12:08;5.35;;;1.67;;
64186;SDS011;50491;39.484;-8.540;2023-07-13T05:14:27;2.65;;;0.80;;
64186;SDS011;50491;39.484;-8.540;2023-07-13T05:16:46;1.27;;;1.00;;
64186;SDS011;50491;39.484;-8.540;2023-07-13T05:19:05;4.72;;;1.95;;
64186;SDS011;50491;39.484;-8.540;2023-07-13T05:21:24;1.27;;;1.00;;
64186;SDS011;50491;39.484;-8.540;2023-07-13T05:23:25;2.20;;;1.42;;
64186;SDS011;50491;39.484;-8.540;2023-07-13T05:25:51;3.97;;;1.20;;
64186;SDS011;50491;39.484;-8.540;2023-07-13T05:27:52;1.88;;;1.10;;
64186;SDS011;50491;39.484;-8.540;2023-07-13T05:29:52;0.95;;;0.90;;
64186;SDS011;50491;39.484;-8.540;2023-07-13T05:31:53;1.73;;;1.00;;
64186;SDS011;50491;39.484;-8.540;2023-07-13T05:33:53;1.20;;;0.70;;
64186;SDS011;50491;39.484;-8.540;2023-07-13T05:35:54;2.95;;;0.90;;
64186;SDS011;50491;39.484;-8.540;2023-07-13T05:37:55;1.40;;;0.75;;
64186;SDS011;50491;39.484;-8.540;2023-07-13T05:39:55;3.40;;;1.00;;
64186;SDS011;50491;39.484;-8.540;2023-07-13T05:41:56;3.90;;;1.08;;
64186;SDS011;50491;39.484;-8.540;2023-07-13T05:43:57;2.80;;;1.15;;
64186;SDS011;50491;39.484;-8.540;2023-07-13T05:45:57;3.03;;;1.00;;
64186;SDS011;50491;39.484;-8.540;2023-07-13T05:48:16;0.82;;;0.73;;
64186;SDS011;50491;39.484;-8.540;2023-07-13T05:50:17;2.35;;;0.90;;
64186;SDS011;50491;39.484;-8.540;2023-07-13T05:52:18;3.63;;;1.05;;
64186;SDS011;50491;39.484;-8.540;2023-07-13T05:54:37;5.13;;;1.10;;
64186;SDS011;50491;39.484;-8.540;2023-07-13T06:04:57;3.08;;;1.05;;
64186;SDS011;50491;39.484;-8.540;2023-07-13T06:07:17;2.72;;;1.30;;
64186;SDS011;50491;39.484;-8.540;2023-07-13T06:14:53;1.90;;;1.20;;
64186;SDS011;50491;39.484;-8.540;2023-07-13T06:16:53;5.05;;;1.40;;
64186;SDS011;50491;39.484;-8.540;2023-07-13T06:21:51;2.70;;;1.10;;
64186;SDS011;50491;39.484;-8.540;2023-07-13T06:26:32;1.50;;;1.10;;
64186;SDS011;50491;39.484;-8.540;2023-07-13T06:28:33;4.30;;;1.80;;
64186;SDS011;50491;39.484;-8.540;2023-07-13T06:30:59;5.68;;;1.45;;
64186;SDS011;50491;39.484;-8.540;2023-07-13T06:33:00;5.10;;;1.45;;
64186;SDS011;50491;39.484;-8.540;2023-07-13T06:35:20;4.13;;;1.67;;
64186;SDS011;50491;39.484;-8.540;2023-07-13T06:37:20;2.17;;;1.13;;
64186;SDS011;50491;39.484;-8.540;2023-07-13T06:39:21;5.22;;;1.48;;
64186;SDS011;50491;39.484;-8.540;2023-07-13T06:41:21;5.20;;;1.50;;
64186;SDS011;50491;39.484;-8.540;2023-07-13T06:43:22;3.67;;;1.45;;
64186;SDS011;50491;39.484;-8.540;2023-07-13T06:47:55;6.53;;;1.05;;
64186;SDS011;50491;39.484;-8.540;2023-07-13T06:52:34;1.45;;;1.30;;
64186;SDS011;50491;39.484;-8.540;2023-07-13T06:54:34;7.90;;;1.58;;
64186;SDS011;50491;39.484;-8.540;2023-07-13T06:56:35;8.07;;;1.60;;
64186;SDS011;50491;39.484;-8.540;2023-07-13T06:58:36;3.05;;;1.63;;
64186;SDS011;50491;39.484;-8.540;2023-07-13T07:00:37;3.08;;;1.50;;
64186;SDS011;50491;39.484;-8.540;2023-07-13T07:02:40;1.38;;;1.10;;
64186;SDS011;50491;39.484;-8.540;2023-07-13T07:04:40;1.45;;;1.00;;
64186;SDS011;50491;39.484;-8.540;2023-07-13T07:06:41;6.10;;;1.20;;
64186;SDS011;50491;39.484;-8.540;2023-07-13T07:08:42;3.08;;;1.27;;
64186;SDS011;50491;39.484;-8.540;2023-07-13T07:10:42;1.58;;;1.00;;
64186;SDS011;50491;39.484;-8.540;2023-07-13T07:13:02;2.08;;;1.13;;
64186;SDS011;50491;39.484;-8.540;2023-07-13T07:15:04;3.05;;;1.55;;
64186;SDS011;50491;39.484;-8.540;2023-07-13T07:17:05;2.00;;;0.95;;
64186;SDS011;50491;39.484;-8.540;2023-07-13T07:19:06;4.82;;;1.70;;
64186;SDS011;50491;39.484;-8.540;2023-07-13T07:21:25;6.57;;;1.20;;
64186;SDS011;50491;39.484;-8.540;2023-07-13T07:23:27;2.38;;;1.73;;
64186;SDS011;50491;39.484;-8.540;2023-07-13T07:25:28;4.30;;;1.55;;
64186;SDS011;50491;39.484;-8.540;2023-07-13T07:27:32;5.63;;;1.67;;
64186;SDS011;50491;39.484;-8.540;2023-07-13T07:29:33;7.32;;;2.00;;
64186;SDS011;50491;39.484;-8.540;2023-07-13T07:31:33;6.45;;;1.95;;
64186;SDS011;50491;39.484;-8.540;2023-07-13T07:33:53;3.47;;;1.60;;
64186;SDS011;50491;39.484;-8.540;2023-07-13T07:36:12;4.55;;;1.67;;
64186;SDS011;50491;39.484;-8.540;2023-07-13T07:38:31;2.60;;;1.40;;
64186;SDS011;50491;39.484;-8.540;2023-07-13T07:40:32;8.43;;;1.60;;
64186;SDS011;50491;39.484;-8.540;2023-07-13T07:42:37;8.38;;;1.55;;
64186;SDS011;50491;39.484;-8.540;2023-07-13T07:44:38;5.82;;;1.88;;
64186;SDS011;50491;39.484;-8.540;2023-07-13T07:46:39;12.45;;;1.92;;
64186;SDS011;50491;39.484;-8.540;2023-07-13T07:48:41;10.95;;;1.38;;
64186;SDS011;50491;39.484;-8.540;2023-07-13T07:50:41;7.18;;;1.20;;
64186;SDS011;50491;39.484;-8.540;2023-07-13T07:52:43;6.57;;;1.58;;
64186;SDS011;50491;39.484;-8.540;2023-07-13T07:54:47;7.03;;;1.48;;
64186;SDS011;50491;39.484;-8.540;2023-07-13T07:57:06;1.83;;;1.00;;
64186;SDS011;50491;39.484;-8.540;2023-07-13T07:59:08;6.97;;;1.52;;
64186;SDS011;50491;39.484;-8.540;2023-07-13T08:01:09;2.95;;;1.25;;
64186;SDS011;50491;39.484;-8.540;2023-07-13T08:03:09;5.40;;;1.30;;
64186;SDS011;50491;39.484;-8.540;2023-07-13T08:05:29;1.15;;;0.88;;
64186;SDS011;50491;39.484;-8.540;2023-07-13T08:07:30;2.78;;;1.50;;
64186;SDS011;50491;39.484;-8.540;2023-07-13T08:09:52;1.35;;;0.93;;
64186;SDS011;50491;39.484;-8.540;2023-07-13T08:12:11;3.38;;;1.25;;
64186;SDS011;50491;39.484;-8.540;2023-07-13T08:14:30;6.20;;;0.90;;
64186;SDS011;50491;39.484;-8.540;2023-07-13T08:16:31;3.13;;;0.95;;
64186;SDS011;50491;39.484;-8.540;2023-07-13T08:18:51;1.00;;;0.90;;
64186;SDS011;50491;39.484;-8.540;2023-07-13T08:21:10;2.97;;;0.88;;
64186;SDS011;50491;39.484;-8.540;2023-07-13T08:23:11;1.00;;;0.90;;
64186;SDS011;50491;39.484;-8.540;2023-07-13T08:25:12;8.93;;;0.90;;
64186;SDS011;50491;39.484;-8.540;2023-07-13T08:27:31;3.83;;;0.93;;
64186;SDS011;50491;39.484;-8.540;2023-07-13T08:29:32;4.32;;;1.15;;
64186;SDS011;50491;39.484;-8.540;2023-07-13T08:31:32;1.20;;;1.10;;
64186;SDS011;50491;39.484;-8.540;2023-07-13T08:33:34;3.50;;;0.82;;
64186;SDS011;50491;39.484;-8.540;2023-07-13T08:35:35;3.80;;;0.80;;
64186;SDS011;50491;39.484;-8.540;2023-07-13T08:37:54;0.90;;;0.68;;
64186;SDS011;50491;39.484;-8.540;2023-07-13T08:39:55;5.45;;;1.10;;
64186;SDS011;50491;39.484;-8.540;2023-07-13T08:41:58;19.55;;;2.30;;
64186;SDS011;50491;39.484;-8.540;2023-07-13T08:44:03;12.40;;;1.48;;
64186;SDS011;50491;39.484;-8.540;2023-07-13T08:51:27;5.53;;;0.93;;
64186;SDS011;50491;39.484;-8.540;2023-07-13T08:53:58;2.35;;;1.10;;
64186;SDS011;50491;39.484;-8.540;2023-07-13T08:56:03;2.15;;;0.82;;
64186;SDS011;50491;39.484;-8.540;2023-07-13T09:02:59;0.88;;;0.82;;
64186;SDS011;50491;39.484;-8.540;2023-07-13T09:05:30;7.35;;;0.68;;
64186;SDS011;50491;39.484;-8.540;2023-07-13T09:13:00;0.65;;;0.50;;
64186;SDS011;50491;39.484;-8.540;2023-07-13T09:14:59;1.00;;;0.60;;
64186;SDS011;50491;39.484;-8.540;2023-07-13T09:17:31;1.27;;;0.40;;
64186;SDS011;50491;39.484;-8.540;2023-07-13T09:20:08;1.02;;;0.60;;
64186;SDS011;50491;39.484;-8.540;2023-07-13T09:22:36;2.30;;;0.63;;
64186;SDS011;50491;39.484;-8.540;2023-07-13T09:27:21;4.95;;;1.27;;
64186;SDS011;50491;39.484;-8.540;2023-07-13T09:29:28;12.02;;;1.30;;
64186;SDS011;50491;39.484;-8.540;2023-07-13T09:31:33;1.05;;;0.50;;
64186;SDS011;50491;39.484;-8.540;2023-07-13T09:33:56;0.57;;;0.57;;
64186;SDS011;50491;39.484;-8.540;2023-07-13T09:44:12;3.10;;;1.67;;
64186;SDS011;50491;39.484;-8.540;2023-07-13T09:46:20;2.20;;;0.52;;
64186;SDS011;50491;39.484;-8.540;2023-07-13T09:48:35;3.35;;;0.82;;
64186;SDS011;50491;39.484;-8.540;2023-07-13T09:50:36;2.20;;;0.65;;
64186;SDS011;50491;39.484;-8.540;2023-07-13T09:52:42;1.00;;;0.60;;
64186;SDS011;50491;39.484;-8.540;2023-07-13T09:54:45;2.65;;;1.08;;
64186;SDS011;50491;39.484;-8.540;2023-07-13T09:57:14;11.60;;;1.27;;
64186;SDS011;50491;39.484;-8.540;2023-07-13T09:59:18;21.67;;;2.10;;
64186;SDS011;50491;39.484;-8.540;2023-07-13T10:01:39;9.35;;;1.35;;
64186;SDS011;50491;39.484;-8.540;2023-07-13T10:03:40;10.80;;;0.75;;
64186;SDS011;50491;39.484;-8.540;2023-07-13T10:05:52;3.83;;;0.88;;
64186;SDS011;50491;39.484;-8.540;2023-07-13T10:07:55;2.13;;;0.68;;
64186;SDS011;50491;39.484;-8.540;2023-07-13T10:09:56;1.90;;;0.80;;
64186;SDS011;50491;39.484;-8.540;2023-07-13T10:11:58;1.15;;;0.70;;
64186;SDS011;50491;39.484;-8.540;2023-07-13T10:14:15;1.70;;;0.73;;
64186;SDS011;50491;39.484;-8.540;2023-07-13T10:16:36;0.80;;;0.70;;
64186;SDS011;50491;39.484;-8.540;2023-07-13T10:18:55;4.90;;;0.90;;
64186;SDS011;50491;39.484;-8.540;2023-07-13T10:21:10;1.42;;;0.63;;
64186;SDS011;50491;39.484;-8.540;2023-07-13T10:23:20;2.55;;;0.90;;
64186;SDS011;50491;39.484;-8.540;2023-07-13T10:25:26;2.97;;;0.90;;
64186;SDS011;50491;39.484;-8.540;2023-07-13T10:27:33;2.95;;;0.80;;
64186;SDS011;50491;39.484;-8.540;2023-07-13T10:30:15;2.63;;;1.00;;
64186;SDS011;50491;39.484;-8.540;2023-07-13T10:32:25;1.35;;;0.80;;
64186;SDS011;50491;39.484;-8.540;2023-07-13T10:34:45;2.67;;;0.75;;
64186;SDS011;50491;39.484;-8.540;2023-07-13T10:36:48;3.92;;;0.75;;
64186;SDS011;50491;39.484;-8.540;2023-07-13T10:38:49;1.98;;;0.57;;
64186;SDS011;50491;39.484;-8.540;2023-07-13T10:41:00;1.42;;;0.70;;
64186;SDS011;50491;39.484;-8.540;2023-07-13T10:43:06;2.60;;;0.65;;
64186;SDS011;50491;39.484;-8.540;2023-07-13T10:45:30;1.52;;;0.57;;
64186;SDS011;50491;39.484;-8.540;2023-07-13T10:47:34;1.55;;;0.65;;
64186;SDS011;50491;39.484;-8.540;2023-07-13T10:49:55;3.40;;;0.60;;
64186;SDS011;50491;39.484;-8.540;2023-07-13T10:51:58;2.22;;;0.80;;
64186;SDS011;50491;39.484;-8.540;2023-07-13T10:54:12;1.92;;;1.20;;
64186;SDS011;50491;39.484;-8.540;2023-07-13T10:58:37;0.98;;;0.50;;
64186;SDS011;50491;39.484;-8.540;2023-07-13T11:03:13;3.50;;;0.88;;
64186;SDS011;50491;39.484;-8.540;2023-07-13T11:05:20;1.65;;;0.82;;
64186;SDS011;50491;39.484;-8.540;2023-07-13T11:07:30;1.00;;;0.57;;
64186;SDS011;50491;39.484;-8.540;2023-07-13T11:10:30;1.80;;;0.75;;
64186;SDS011;50491;39.484;-8.540;2023-07-13T11:13:27;0.60;;;0.40;;
64186;SDS011;50491;39.484;-8.540;2023-07-13T11:15:56;3.17;;;0.90;;
64186;SDS011;50491;39.484;-8.540;2023-07-13T11:17:56;1.35;;;0.57;;
64186;SDS011;50491;39.484;-8.540;2023-07-13T11:22:13;0.75;;;0.60;;
64186;SDS011;50491;39.484;-8.540;2023-07-13T11:24:16;1.00;;;0.63;;
64186;SDS011;50491;39.484;-8.540;2023-07-13T11:28:55;0.47;;;0.38;;
64186;SDS011;50491;39.484;-8.540;2023-07-13T11:31:15;1.88;;;0.50;;
64186;SDS011;50491;39.484;-8.540;2023-07-13T11:38:17;2.10;;;0.95;;
64186;SDS011;50491;39.484;-8.540;2023-07-13T11:40:39;0.95;;;0.50;;
64186;SDS011;50491;39.484;-8.540;2023-07-13T11:42:59;1.65;;;0.50;;
64186;SDS011;50491;39.484;-8.540;2023-07-13T11:45:01;2.42;;;0.98;;
64186;SDS011;50491;39.484;-8.540;2023-07-13T11:47:09;0.93;;;0.73;;
64186;SDS011;50491;39.484;-8.540;2023-07-13T11:49:13;1.20;;;0.60;;
64186;SDS011;50491;39.484;-8.540;2023-07-13T11:51:35;2.15;;;0.80;;
64186;SDS011;50491;39.484;-8.540;2023-07-13T11:53:55;1.65;;;0.85;;
64186;SDS011;50491;39.484;-8.540;2023-07-13T11:55:57;4.03;;;0.98;;
64186;SDS011;50491;39.484;-8.540;2023-07-13T11:58:17;1.58;;;0.68;;
64186;SDS011;50491;39.484;-8.540;2023-07-13T12:00:23;1.70;;;0.40;;
64186;SDS011;50491;39.484;-8.540;2023-07-13T12:02:50;0.88;;;0.50;;
64186;SDS011;50491;39.484;-8.540;2023-07-13T12:05:11;1.20;;;0.50;;
64186;SDS011;50491;39.484;-8.540;2023-07-13T12:07:39;2.42;;;0.70;;
64186;SDS011;50491;39.484;-8.540;2023-07-13T12:10:18;10.25;;;1.70;;
64186;SDS011;50491;39.484;-8.540;2023-07-13T12:12:55;2.78;;;0.60;;
64186;SDS011;50491;39.484;-8.540;2023-07-13T12:15:16;1.80;;;0.50;;
64186;SDS011;50491;39.484;-8.540;2023-07-13T12:17:36;0.88;;;0.60;;
64186;SDS011;50491;39.484;-8.540;2023-07-13T12:19:37;3.25;;;1.10;;
64186;SDS011;50491;39.484;-8.540;2023-07-13T12:21:38;0.77;;;0.52;;
64186;SDS011;50491;39.484;-8.540;2023-07-13T12:23:39;1.17;;;0.55;;
64186;SDS011;50491;39.484;-8.540;2023-07-13T12:26:03;1.80;;;0.77;;
64186;SDS011;50491;39.484;-8.540;2023-07-13T12:28:19;1.38;;;0.60;;
64186;SDS011;50491;39.484;-8.540;2023-07-13T12:30:25;1.23;;;0.60;;
64186;SDS011;50491;39.484;-8.540;2023-07-13T12:32:26;2.35;;;0.82;;
64186;SDS011;50491;39.484;-8.540;2023-07-13T12:34:27;1.05;;;0.50;;
64186;SDS011;50491;39.484;-8.540;2023-07-13T12:36:47;1.75;;;0.52;;
64186;SDS011;50491;39.484;-8.540;2023-07-13T12:38:49;1.70;;;0.52;;
64186;SDS011;50491;39.484;-8.540;2023-07-13T12:41:09;0.47;;;0.47;;
64186;SDS011;50491;39.484;-8.540;2023-07-13T12:43:13;0.77;;;0.57;;
64186;SDS011;50491;39.484;-8.540;2023-07-13T12:47:25;2.38;;;0.60;;
64186;SDS011;50491;39.484;-8.540;2023-07-13T12:49:27;1.50;;;0.60;;
64186;SDS011;50491;39.484;-8.540;2023-07-13T12:51:30;1.83;;;0.40;;
64186;SDS011;50491;39.484;-8.540;2023-07-13T12:53:30;0.68;;;0.40;;
64186;SDS011;50491;39.484;-8.540;2023-07-13T12:55:32;1.45;;;0.40;;
64186;SDS011;50491;39.484;-8.540;2023-07-13T12:58:02;0.82;;;0.43;;
64186;SDS011;50491;39.484;-8.540;2023-07-13T13:00:04;2.45;;;1.25;;
64186;SDS011;50491;39.484;-8.540;2023-07-13T13:02:32;1.33;;;0.40;;
64186;SDS011;50491;39.484;-8.540;2023-07-13T13:04:54;3.50;;;0.50;;
64186;SDS011;50491;39.484;-8.540;2023-07-13T13:07:14;1.65;;;0.90;;
64186;SDS011;50491;39.484;-8.540;2023-07-13T13:09:16;1.33;;;0.50;;
64186;SDS011;50491;39.484;-8.540;2023-07-13T13:11:19;3.15;;;0.60;;
64186;SDS011;50491;39.484;-8.540;2023-07-13T13:13:46;0.85;;;0.45;;
64186;SDS011;50491;39.484;-8.540;2023-07-13T13:15:50;4.47;;;0.50;;
64186;SDS011;50491;39.484;-8.540;2023-07-13T13:18:21;1.27;;;0.30;;
64186;SDS011;50491;39.484;-8.540;2023-07-13T13:20:41;2.10;;;0.43;;
64186;SDS011;50491;39.484;-8.540;2023-07-13T13:23:00;0.60;;;0.40;;
64186;SDS011;50491;39.484;-8.540;2023-07-13T13:25:00;2.92;;;0.70;;
64186;SDS011;50491;39.484;-8.540;2023-07-13T13:27:01;2.20;;;0.70;;
64186;SDS011;50491;39.484;-8.540;2023-07-13T13:29:04;0.90;;;0.50;;
64186;SDS011;50491;39.484;-8.540;2023-07-13T13:31:10;1.48;;;0.35;;
64186;SDS011;50491;39.484;-8.540;2023-07-13T13:33:33;1.17;;;0.35;;
64186;SDS011;50491;39.484;-8.540;2023-07-13T13:35:52;0.73;;;0.50;;
64186;SDS011;50491;39.484;-8.540;2023-07-13T13:37:53;3.30;;;0.52;;
64186;SDS011;50491;39.484;-8.540;2023-07-13T13:39:53;2.38;;;0.73;;
64186;SDS011;50491;39.484;-8.540;2023-07-13T13:41:55;4.10;;;0.50;;
64186;SDS011;50491;39.484;-8.540;2023-07-13T13:43:56;1.77;;;0.40;;
64186;SDS011;50491;39.484;-8.540;2023-07-13T13:46:18;1.55;;;0.60;;
64186;SDS011;50491;39.484;-8.540;2023-07-13T13:48:40;1.98;;;0.68;;
64186;SDS011;50491;39.484;-8.540;2023-07-13T13:50:41;1.02;;;0.38;;
64186;SDS011;50491;39.484;-8.540;2023-07-13T13:53:00;2.15;;;0.40;;
64186;SDS011;50491;39.484;-8.540;2023-07-13T13:55:04;2.05;;;0.20;;
64186;SDS011;50491;39.484;-8.540;2023-07-13T13:57:33;1.65;;;0.40;;
64186;SDS011;50491;39.484;-8.540;2023-07-13T13:59:53;0.38;;;0.30;;
64186;SDS011;50491;39.484;-8.540;2023-07-13T14:02:33;0.85;;;0.47;;
64186;SDS011;50491;39.484;-8.540;2023-07-13T14:04:32;1.63;;;0.60;;
64186;SDS011;50491;39.484;-8.540;2023-07-13T14:06:52;0.98;;;0.38;;
64186;SDS011;50491;39.484;-8.540;2023-07-13T14:09:12;2.15;;;0.50;;
64186;SDS011;50491;39.484;-8.540;2023-07-13T14:11:33;1.63;;;0.60;;
64186;SDS011;50491;39.484;-8.540;2023-07-13T14:13:35;2.03;;;0.47;;
64186;SDS011;50491;39.484;-8.540;2023-07-13T14:15:37;1.10;;;0.50;;
64186;SDS011;50491;39.484;-8.540;2023-07-13T14:17:56;2.80;;;0.50;;
64186;SDS011;50491;39.484;-8.540;2023-07-13T14:20:17;2.85;;;0.50;;
64186;SDS011;50491;39.484;-8.540;2023-07-13T14:22:37;3.97;;;0.63;;
64186;SDS011;50491;39.484;-8.540;2023-07-13T14:24:38;1.00;;;0.43;;
64186;SDS011;50491;39.484;-8.540;2023-07-13T14:26:39;0.73;;;0.40;;
64186;SDS011;50491;39.484;-8.540;2023-07-13T14:28:44;1.83;;;0.40;;
64186;SDS011;50491;39.484;-8.540;2023-07-13T14:30:46;0.95;;;0.47;;
64186;SDS011;50491;39.484;-8.540;2023-07-13T14:33:08;3.42;;;0.50;;
64186;SDS011;50491;39.484;-8.540;2023-07-13T14:35:28;0.83;;;0.43;;
64186;SDS011;50491;39.484;-8.540;2023-07-13T14:37:48;2.60;;;0.40;;
64186;SDS011;50491;39.484;-8.540;2023-07-13T14:39:48;4.03;;;0.68;;
64186;SDS011;50491;39.484;-8.540;2023-07-13T14:41:51;1.83;;;0.70;;
64186;SDS011;50491;39.484;-8.540;2023-07-13T14:43:55;2.00;;;0.38;;
64186;SDS011;50491;39.484;-8.540;2023-07-13T14:45:55;1.52;;;0.60;;
64186;SDS011;50491;39.484;-8.540;2023-07-13T14:47:56;1.73;;;0.38;;
64186;SDS011;50491;39.484;-8.540;2023-07-13T14:50:17;3.22;;;0.90;;
64186;SDS011;50491;39.484;-8.540;2023-07-13T14:52:25;1.25;;;0.50;;